sensor_id;sensor_type;location;lat;lon;timestamp;pressure;altitude;pressure_sealevel;temperature;humidity
30554;BME280;17335;50.720;7.452;2023-07-02T00:02:17;98647.22;;;15.10;100.00
30554;BME280;17335;50.720;7.452;2023-07-02T00:04:45;98646.59;;;15.08;100.00
30554;BME280;17335;50.720;7.452;2023-07-02T00:07:12;98641.44;;;15.13;100.00
30554;BME280;17335;50.720;7.452;2023-07-02T00:09:38;98645.53;;;15.09;100.00
30554;BME280;17335;50.720;7.452;2023-07-02T00:12:05;98643.09;;;15.14;100.00
30554;BME280;17335;50.720;7.452;2023-07-02T00:14:32;98644.72;;;15.08;100.00
30554;BME280;17335;50.720;7.452;2023-07-02T00:16:59;98645.53;;;15.09;100.00
30554;BME280;17335;50.720;7.452;2023-07-02T00:19:25;98646.38;;;15.09;100.00
30554;BME280;17335;50.720;7.452;2023-07-02T00:21:52;98643.88;;;15.08;100.00
30554;BME280;17335;50.720;7.452;2023-07-02T00:24:20;98644.25;;;15.05;100.00
30554;BME280;17335;50.720;7.452;2023-07-02T00:26:46;98642.56;;;15.04;100.00
30554;BME280;17335;50.720;7.452;2023-07-02T00:29:13;98645.28;;;15.04;100.00
30554;BME280;17335;50.720;7.452;2023-07-02T00:31:39;98647.97;;;15.04;100.00
30554;BME280;17335;50.720;7.452;2023-07-02T00:34:06;98643.41;;;15.04;100.00
30554;BME280;17335;50.720;7.452;2023-07-02T00:36:33;98637.63;;;15.07;100.00
30554;BME280;17335;50.720;7.452;2023-07-02T00:38:59;98636.78;;;15.07;100.00
30554;BME280;17335;50.720;7.452;2023-07-02T00:41:26;98625.59;;;15.10;100.00
30554;BME280;17335;50.720;7.452;2023-07-02T00:43:53;98635.00;;;15.14;100.00
30554;BME280;17335;50.720;7.452;2023-07-02T00:46:23;98626.50;;;15.17;100.00
30554;BME280;17335;50.720;7.452;2023-07-02T00:48:53;98625.50;;;15.18;100.00
30554;BME280;17335;50.720;7.452;2023-07-02T00:51:24;98624.81;;;15.16;100.00
30554;BME280;17335;50.720;7.452;2023-07-02T00:53:53;98624.38;;;15.12;100.00
30554;BME280;17335;50.720;7.452;2023-07-02T00:56:22;98622.31;;;15.14;100.00
30554;BME280;17335;50.720;7.452;2023-07-02T00:58:51;98623.72;;;15.10;100.00
30554;BME280;17335;50.720;7.452;2023-07-02T01:06:24;98624.03;;;15.00;100.00
30554;BME280;17335;50.720;7.452;2023-07-02T01:08:56;98623.78;;;14.95;100.00
30554;BME280;17335;50.720;7.452;2023-07-02T01:11:42;98615.41;;;14.90;100.00
30554;BME280;17335;50.720;7.452;2023-07-02T01:14:25;98615.34;;;14.84;100.00
30554;BME280;17335;50.720;7.452;2023-07-02T01:16:53;98624.00;;;14.79;100.00
30554;BME280;17335;50.720;7.452;2023-07-02T01:22:00;98628.00;;;14.83;100.00
30554;BME280;17335;50.720;7.452;2023-07-02T01:24:28;98620.06;;;14.96;100.00
30554;BME280;17335;50.720;7.452;2023-07-02T01:26:54;98622.09;;;14.94;100.00
30554;BME280;17335;50.720;7.452;2023-07-02T01:29:22;98619.88;;;14.83;100.00
30554;BME280;17335;50.720;7.452;2023-07-02T01:31:49;98619.25;;;14.81;100.00
30554;BME280;17335;50.720;7.452;2023-07-02T01:34:15;98621.03;;;14.74;100.00
30554;BME280;17335;50.720;7.452;2023-07-02T01:36:42;98615.38;;;14.69;100.00
30554;BME280;17335;50.720;7.452;2023-07-02T01:39:08;98616.00;;;14.71;100.00
30554;BME280;17335;50.720;7.452;2023-07-02T01:41:50;98618.97;;;14.76;100.00
30554;BME280;17335;50.720;7.452;2023-07-02T01:44:17;98620.22;;;14.73;100.00
30554;BME280;17335;50.720;7.452;2023-07-02T01:46:45;98610.78;;;14.84;100.00
30554;BME280;17335;50.720;7.452;2023-07-02T01:49:18;98617.50;;;14.73;100.00
30554;BME280;17335;50.720;7.452;2023-07-02T01:51:55;98615.63;;;14.74;100.00
30554;BME280;17335;50.720;7.452;2023-07-02T01:54:23;98620.13;;;14.67;100.00
30554;BME280;17335;50.720;7.452;2023-07-02T01:56:50;98613.22;;;14.79;100.00
30554;BME280;17335;50.720;7.452;2023-07-02T01:59:16;98622.69;;;14.75;100.00
30554;BME280;17335;50.720;7.452;2023-07-02T02:01:43;98614.06;;;14.65;100.00
30554;BME280;17335;50.720;7.452;2023-07-02T02:04:11;98613.03;;;14.66;100.00
30554;BME280;17335;50.720;7.452;2023-07-02T02:06:39;98610.53;;;14.64;100.00
30554;BME280;17335;50.720;7.452;2023-07-02T02:09:07;98611.63;;;14.55;100.00
30554;BME280;17335;50.720;7.452;2023-07-02T02:11:37;98622.94;;;14.58;100.00
30554;BME280;17335;50.720;7.452;2023-07-02T02:14:03;98621.97;;;14.51;100.00
30554;BME280;17335;50.720;7.452;2023-07-02T02:16:30;98623.19;;;14.49;100.00
30554;BME280;17335;50.720;7.452;2023-07-02T02:18:57;98624.09;;;14.56;100.00
30554;BME280;17335;50.720;7.452;2023-07-02T02:21:24;98624.28;;;14.54;100.00
30554;BME280;17335;50.720;7.452;2023-07-02T02:23:52;98623.25;;;14.55;100.00
30554;BME280;17335;50.720;7.452;2023-07-02T02:26:19;98619.28;;;14.51;100.00
30554;BME280;17335;50.720;7.452;2023-07-02T02:28:48;98624.59;;;14.59;100.00
30554;BME280;17335;50.720;7.452;2023-07-02T02:31:16;98621.22;;;14.57;100.00
30554;BME280;17335;50.720;7.452;2023-07-02T02:33:43;98616.75;;;14.65;100.00
30554;BME280;17335;50.720;7.452;2023-07-02T02:36:10;98610.72;;;14.62;100.00
30554;BME280;17335;50.720;7.452;2023-07-02T02:38:37;98608.56;;;14.58;100.00
30554;BME280;17335;50.720;7.452;2023-07-02T02:41:04;98611.63;;;14.55;100.00
30554;BME280;17335;50.720;7.452;2023-07-02T02:43:30;98616.50;;;14.44;100.00
30554;BME280;17335;50.720;7.452;2023-07-02T02:45:57;98614.63;;;14.45;100.00
30554;BME280;17335;50.720;7.452;2023-07-02T02:48:24;98611.28;;;14.43;100.00
30554;BME280;17335;50.720;7.452;2023-07-02T02:50:51;98621.06;;;14.44;100.00
30554;BME280;17335;50.720;7.452;2023-07-02T02:53:17;98619.84;;;14.47;100.00
30554;BME280;17335;50.720;7.452;2023-07-02T02:55:44;98617.88;;;14.40;100.00
30554;BME280;17335;50.720;7.452;2023-07-02T02:58:11;98618.44;;;14.36;100.00
30554;BME280;17335;50.720;7.452;2023-07-02T03:00:38;98620.09;;;14.37;100.00
30554;BME280;17335;50.720;7.452;2023-07-02T03:03:08;98622.16;;;14.35;100.00
30554;BME280;17335;50.720;7.452;2023-07-02T03:05:35;98619.75;;;14.40;100.00
30554;BME280;17335;50.720;7.452;2023-07-02T03:08:02;98626.09;;;14.32;100.00
30554;BME280;17335;50.720;7.452;2023-07-02T03:10:29;98622.06;;;14.28;100.00
30554;BME280;17335;50.720;7.452;2023-07-02T03:12:56;98631.66;;;14.31;100.00
30554;BME280;17335;50.720;7.452;2023-07-02T03:15:23;98628.69;;;14.25;100.00
30554;BME280;17335;50.720;7.452;2023-07-02T03:17:49;98631.03;;;14.29;100.00
30554;BME280;17335;50.720;7.452;2023-07-02T03:20:16;98637.44;;;14.28;100.00
30554;BME280;17335;50.720;7.452;2023-07-02T03:22:43;98629.34;;;14.28;100.00
30554;BME280;17335;50.720;7.452;2023-07-02T03:25:10;98634.75;;;14.28;100.00
30554;BME280;17335;50.720;7.452;2023-07-02T03:27:36;98627.38;;;14.21;100.00
30554;BME280;17335;50.720;7.452;2023-07-02T03:30:04;98626.19;;;14.24;100.00
30554;BME280;17335;50.720;7.452;2023-07-02T03:32:31;98624.66;;;14.21;100.00
30554;BME280;17335;50.720;7.452;2023-07-02T03:34:57;98640.22;;;14.19;100.00
30554;BME280;17335;50.720;7.452;2023-07-02T03:37:24;98629.31;;;14.13;100.00
30554;BME280;17335;50.720;7.452;2023-07-02T03:39:51;98635.59;;;14.13;100.00
30554;BME280;17335;50.720;7.452;2023-07-02T03:42:18;98626.91;;;14.18;100.00
30554;BME280;17335;50.720;7.452;2023-07-02T03:44:44;98631.13;;;14.20;100.00
30554;BME280;17335;50.720;7.452;2023-07-02T03:47:11;98621.88;;;14.15;100.00
30554;BME280;17335;50.720;7.452;2023-07-02T03:49:42;98637.78;;;14.10;100.00
30554;BME280;17335;50.720;7.452;2023-07-02T03:52:08;98637.59;;;14.11;100.00
30554;BME280;17335;50.720;7.452;2023-07-02T03:54:38;98642.63;;;14.14;100.00
30554;BME280;17335;50.720;7.452;2023-07-02T03:57:05;98644.88;;;14.11;100.00
30554;BME280;17335;50.720;7.452;2023-07-02T03:59:32;98657.72;;;14.09;100.00
30554;BME280;17335;50.720;7.452;2023-07-02T04:02:00;98660.22;;;14.10;100.00
30554;BME280;17335;50.720;7.452;2023-07-02T04:04:27;98667.97;;;14.13;100.00
30554;BME280;17335;50.720;7.452;2023-07-02T04:06:54;98677.72;;;14.14;100.00
30554;BME280;17335;50.720;7.452;2023-07-02T04:09:21;98680.06;;;14.17;100.00
30554;BME280;17335;50.720;7.452;2023-07-02T04:11:47;98681.75;;;14.18;100.00
30554;BME280;17335;50.720;7.452;2023-07-02T04:14:14;98692.91;;;14.15;100.00
30554;BME280;17335;50.720;7.452;2023-07-02T04:16:43;98690.50;;;14.20;100.00
30554;BME280;17335;50.720;7.452;2023-07-02T04:19:11;98698.03;;;14.25;100.00
30554;BME280;17335;50.720;7.452;2023-07-02T04:21:38;98697.84;;;14.26;100.00
30554;BME280;17335;50.720;7.452;2023-07-02T04:24:05;98690.41;;;14.29;100.00
30554;BME280;17335;50.720;7.452;2023-07-02T04:26:32;98688.00;;;14.34;100.00
30554;BME280;17335;50.720;7.452;2023-07-02T04:29:19;98689.56;;;14.43;100.00
30554;BME280;17335;50.720;7.452;2023-07-02T04:31:45;98688.16;;;14.47;100.00
30554;BME280;17335;50.720;7.452;2023-07-02T04:34:12;98697.97;;;14.48;100.00
30554;BME280;17335;50.720;7.452;2023-07-02T04:36:39;98689.09;;;14.54;100.00
30554;BME280;17335;50.720;7.452;2023-07-02T04:39:06;98688.09;;;14.55;100.00
30554;BME280;17335;50.720;7.452;2023-07-02T04:41:34;98703.59;;;14.61;100.00
30554;BME280;17335;50.720;7.452;2023-07-02T04:44:01;98693.25;;;14.65;100.00
30554;BME280;17335;50.720;7.452;2023-07-02T04:46:28;98699.13;;;14.69;100.00
30554;BME280;17335;50.720;7.452;2023-07-02T04:48:54;98698.06;;;14.85;100.00
30554;BME280;17335;50.720;7.452;2023-07-02T04:51:21;98700.31;;;14.81;100.00
30554;BME280;17335;50.720;7.452;2023-07-02T04:53:48;98711.31;;;14.79;100.00
30554;BME280;17335;50.720;7.452;2023-07-02T04:56:14;98703.38;;;14.78;100.00
30554;BME280;17335;50.720;7.452;2023-07-02T04:58:41;98698.84;;;14.78;100.00
30554;BME280;17335;50.720;7.452;2023-07-02T05:01:08;98705.53;;;14.82;100.00
30554;BME280;17335;50.720;7.452;2023-07-02T05:03:34;98714.75;;;14.88;100.00
30554;BME280;17335;50.720;7.452;2023-07-02T05:06:01;98703.94;;;14.88;100.00
30554;BME280;17335;50.720;7.452;2023-07-02T05:08:27;98714.28;;;14.85;100.00
30554;BME280;17335;50.720;7.452;2023-07-02T05:10:54;98715.28;;;14.98;100.00
30554;BME280;17335;50.720;7.452;2023-07-02T05:13:21;98716.06;;;14.92;100.00
30554;BME280;17335;50.720;7.452;2023-07-02T05:15:48;98714.81;;;14.95;100.00
30554;BME280;17335;50.720;7.452;2023-07-02T05:18:15;98716.06;;;14.92;100.00
30554;BME280;17335;50.720;7.452;2023-07-02T05:20:42;98719.88;;;14.98;100.00
30554;BME280;17335;50.720;7.452;2023-07-02T05:23:08;98718.34;;;14.95;100.00
30554;BME280;17335;50.720;7.452;2023-07-02T05:25:35;98726.47;;;14.95;100.00
30554;BME280;17335;50.720;7.452;2023-07-02T05:28:02;98725.81;;;14.93;100.00
30554;BME280;17335;50.720;7.452;2023-07-02T05:30:28;98721.59;;;15.06;100.00
30554;BME280;17335;50.720;7.452;2023-07-02T05:32:55;98718.25;;;15.04;100.00
30554;BME280;17335;50.720;7.452;2023-07-02T05:35:22;98722.75;;;15.11;100.00
30554;BME280;17335;50.720;7.452;2023-07-02T05:37:53;98724.31;;;15.06;100.00
30554;BME280;17335;50.720;7.452;2023-07-02T05:40:45;98731.56;;;15.20;100.00
30554;BME280;17335;50.720;7.452;2023-07-02T05:43:40;98729.88;;;15.19;100.00
30554;BME280;17335;50.720;7.452;2023-07-02T05:46:08;98734.91;;;15.22;100.00
30554;BME280;17335;50.720;7.452;2023-07-02T05:48:35;98732.59;;;15.19;100.00
30554;BME280;17335;50.720;7.452;2023-07-02T05:51:06;98739.84;;;15.33;100.00
30554;BME280;17335;50.720;7.452;2023-07-02T05:53:40;98742.94;;;15.30;100.00
30554;BME280;17335;50.720;7.452;2023-07-02T05:56:07;98745.38;;;15.47;100.00
30554;BME280;17335;50.720;7.452;2023-07-02T05:58:36;98740.13;;;15.60;100.00
30554;BME280;17335;50.720;7.452;2023-07-02T06:01:15;98739.56;;;15.65;100.00
30554;BME280;17335;50.720;7.452;2023-07-02T06:03:44;98738.59;;;15.72;100.00
30554;BME280;17335;50.720;7.452;2023-07-02T06:06:12;98743.66;;;15.75;100.00
30554;BME280;17335;50.720;7.452;2023-07-02T06:08:38;98744.09;;;15.79;100.00
30554;BME280;17335;50.720;7.452;2023-07-02T06:11:05;98743.25;;;15.79;100.00
30554;BME280;17335;50.720;7.452;2023-07-02T06:13:32;98747.25;;;16.04;100.00
30554;BME280;17335;50.720;7.452;2023-07-02T06:15:59;98742.34;;;16.15;100.00
30554;BME280;17335;50.720;7.452;2023-07-02T06:18:25;98744.50;;;16.26;100.00
30554;BME280;17335;50.720;7.452;2023-07-02T06:20:52;98734.53;;;16.33;100.00
30554;BME280;17335;50.720;7.452;2023-07-02T06:23:19;98740.59;;;16.63;100.00
30554;BME280;17335;50.720;7.452;2023-07-02T06:25:46;98737.19;;;17.18;100.00
30554;BME280;17335;50.720;7.452;2023-07-02T06:28:13;98737.06;;;17.53;100.00
30554;BME280;17335;50.720;7.452;2023-07-02T06:30:39;98725.44;;;17.79;100.00
30554;BME280;17335;50.720;7.452;2023-07-02T06:33:06;98727.81;;;18.09;100.00
30554;BME280;17335;50.720;7.452;2023-07-02T06:35:33;98732.78;;;18.18;100.00
30554;BME280;17335;50.720;7.452;2023-07-02T06:37:59;98729.66;;;18.15;100.00
30554;BME280;17335;50.720;7.452;2023-07-02T06:40:26;98726.75;;;18.23;100.00
30554;BME280;17335;50.720;7.452;2023-07-02T06:42:56;98728.19;;;18.32;100.00
30554;BME280;17335;50.720;7.452;2023-07-02T06:45:23;98730.91;;;18.32;100.00
30554;BME280;17335;50.720;7.452;2023-07-02T06:47:50;98735.50;;;18.18;100.00
30554;BME280;17335;50.720;7.452;2023-07-02T06:50:17;98731.13;;;18.11;100.00
30554;BME280;17335;50.720;7.452;2023-07-02T06:52:45;98742.63;;;18.40;100.00
30554;BME280;17335;50.720;7.452;2023-07-02T06:55:12;98741.97;;;18.51;100.00
30554;BME280;17335;50.720;7.452;2023-07-02T06:57:45;98744.94;;;18.36;100.00
30554;BME280;17335;50.720;7.452;2023-07-02T07:00:13;98746.38;;;18.39;100.00
30554;BME280;17335;50.720;7.452;2023-07-02T07:02:39;98753.28;;;18.21;100.00
30554;BME280;17335;50.720;7.452;2023-07-02T07:05:06;98747.44;;;18.31;100.00
30554;BME280;17335;50.720;7.452;2023-07-02T07:07:33;98753.25;;;18.48;100.00
30554;BME280;17335;50.720;7.452;2023-07-02T07:10:00;98758.66;;;18.81;100.00
30554;BME280;17335;50.720;7.452;2023-07-02T07:12:26;98755.59;;;19.29;100.00
30554;BME280;17335;50.720;7.452;2023-07-02T07:14:53;98751.88;;;19.24;100.00
30554;BME280;17335;50.720;7.452;2023-07-02T07:17:20;98754.81;;;19.16;100.00
30554;BME280;17335;50.720;7.452;2023-07-02T07:19:46;98758.53;;;19.28;100.00
30554;BME280;17335;50.720;7.452;2023-07-02T07:22:13;98750.16;;;19.29;100.00
30554;BME280;17335;50.720;7.452;2023-07-02T07:24:41;98749.44;;;19.02;100.00
30554;BME280;17335;50.720;7.452;2023-07-02T07:27:24;98755.88;;;19.15;100.00
30554;BME280;17335;50.720;7.452;2023-07-02T07:30:22;98756.06;;;19.20;100.00
30554;BME280;17335;50.720;7.452;2023-07-02T07:32:53;98750.78;;;19.32;100.00
30554;BME280;17335;50.720;7.452;2023-07-02T07:35:21;98751.88;;;19.24;100.00
30554;BME280;17335;50.720;7.452;2023-07-02T07:37:48;98755.66;;;19.16;100.00
30554;BME280;17335;50.720;7.452;2023-07-02T07:40:16;98758.94;;;19.32;100.00
30554;BME280;17335;50.720;7.452;2023-07-02T07:42:42;98752.81;;;19.49;100.00
30554;BME280;17335;50.720;7.452;2023-07-02T07:45:10;98755.47;;;19.56;100.00
30554;BME280;17335;50.720;7.452;2023-07-02T07:47:38;98748.19;;;19.89;100.00
30554;BME280;17335;50.720;7.452;2023-07-02T07:50:07;98743.00;;;20.12;100.00
30554;BME280;17335;50.720;7.452;2023-07-02T07:52:40;98759.47;;;20.49;100.00
30554;BME280;17335;50.720;7.452;2023-07-02T07:55:08;98755.19;;;20.10;100.00
30554;BME280;17335;50.720;7.452;2023-07-02T07:57:36;98751.09;;;19.94;100.00
30554;BME280;17335;50.720;7.452;2023-07-02T08:00:04;98743.69;;;19.69;100.00
30554;BME280;17335;50.720;7.452;2023-07-02T08:02:33;98737.19;;;19.25;100.00
30554;BME280;17335;50.720;7.452;2023-07-02T08:05:09;98753.31;;;19.26;100.00
30554;BME280;17335;50.720;7.452;2023-07-02T08:07:51;98750.38;;;19.28;100.00
30554;BME280;17335;50.720;7.452;2023-07-02T08:10:23;98742.66;;;19.18;100.00
30554;BME280;17335;50.720;7.452;2023-07-02T08:12:54;98751.03;;;19.17;100.00
30554;BME280;17335;50.720;7.452;2023-07-02T08:15:24;98756.84;;;19.27;100.00
30554;BME280;17335;50.720;7.452;2023-07-02T08:17:54;98760.28;;;19.09;100.00
30554;BME280;17335;50.720;7.452;2023-07-02T08:20:26;98766.72;;;19.28;100.00
30554;BME280;17335;50.720;7.452;2023-07-02T08:22:56;98766.44;;;19.43;100.00
30554;BME280;17335;50.720;7.452;2023-07-02T08:25:26;98764.66;;;19.62;100.00
30554;BME280;17335;50.720;7.452;2023-07-02T08:27:57;98767.41;;;19.62;100.00
30554;BME280;17335;50.720;7.452;2023-07-02T08:30:27;98770.94;;;19.62;100.00
30554;BME280;17335;50.720;7.452;2023-07-02T08:32:57;98770.88;;;19.82;100.00
30554;BME280;17335;50.720;7.452;2023-07-02T08:35:28;98768.53;;;19.86;100.00
30554;BME280;17335;50.720;7.452;2023-07-02T08:37:58;98767.22;;;19.57;100.00
30554;BME280;17335;50.720;7.452;2023-07-02T08:40:30;98774.13;;;19.98;100.00
30554;BME280;17335;50.720;7.452;2023-07-02T08:43:00;98777.81;;;20.35;100.00
30554;BME280;17335;50.720;7.452;2023-07-02T08:45:30;98780.09;;;20.38;100.00
30554;BME280;17335;50.720;7.452;2023-07-02T08:48:02;98774.47;;;20.33;100.00
30554;BME280;17335;50.720;7.452;2023-07-02T08:50:32;98782.09;;;20.50;100.00
30554;BME280;17335;50.720;7.452;2023-07-02T08:53:02;98770.97;;;20.51;100.00
30554;BME280;17335;50.720;7.452;2023-07-02T08:55:32;98762.75;;;20.58;100.00
30554;BME280;17335;50.720;7.452;2023-07-02T08:58:02;98767.69;;;20.68;100.00
30554;BME280;17335;50.720;7.452;2023-07-02T09:00:32;98764.69;;;20.76;100.00
30554;BME280;17335;50.720;7.452;2023-07-02T09:03:14;98764.00;;;20.55;100.00
30554;BME280;17335;50.720;7.452;2023-07-02T09:05:52;98773.66;;;20.33;100.00
30554;BME280;17335;50.720;7.452;2023-07-02T09:08:29;98781.72;;;20.46;100.00
30554;BME280;17335;50.720;7.452;2023-07-02T09:11:12;98771.69;;;20.40;100.00
30554;BME280;17335;50.720;7.452;2023-07-02T09:13:48;98779.88;;;20.40;100.00
30554;BME280;17335;50.720;7.452;2023-07-02T09:19:01;98777.19;;;20.08;100.00
30554;BME280;17335;50.720;7.452;2023-07-02T09:21:45;98777.72;;;20.23;100.00
30554;BME280;17335;50.720;7.452;2023-07-02T09:24:22;98793.47;;;20.47;100.00
30554;BME280;17335;50.720;7.452;2023-07-02T09:26:53;98785.75;;;20.69;100.00
30554;BME280;17335;50.720;7.452;2023-07-02T09:29:33;98785.81;;;20.62;100.00
30554;BME280;17335;50.720;7.452;2023-07-02T09:32:06;98781.78;;;20.65;100.00
30554;BME280;17335;50.720;7.452;2023-07-02T09:34:40;98780.91;;;20.71;100.00
30554;BME280;17335;50.720;7.452;2023-07-02T09:37:10;98774.16;;;20.73;100.00
30554;BME280;17335;50.720;7.452;2023-07-02T09:39:39;98778.34;;;20.94;100.00
30554;BME280;17335;50.720;7.452;2023-07-02T09:42:09;98781.69;;;20.96;100.00
30554;BME280;17335;50.720;7.452;2023-07-02T09:44:42;98780.09;;;20.89;100.00
30554;BME280;17335;50.720;7.452;2023-07-02T09:47:14;98779.78;;;20.78;100.00
30554;BME280;17335;50.720;7.452;2023-07-02T09:49:58;98783.63;;;20.71;100.00
30554;BME280;17335;50.720;7.452;2023-07-02T09:52:29;98779.16;;;20.51;100.00
30554;BME280;17335;50.720;7.452;2023-07-02T09:55:00;98786.84;;;20.36;100.00
30554;BME280;17335;50.720;7.452;2023-07-02T09:57:30;98783.66;;;20.14;100.00
30554;BME280;17335;50.720;7.452;2023-07-02T10:00:04;98788.28;;;19.75;100.00
30554;BME280;17335;50.720;7.452;2023-07-02T10:02:37;98784.81;;;19.47;100.00
30554;BME280;17335;50.720;7.452;2023-07-02T10:05:07;98789.41;;;19.54;100.00
30554;BME280;17335;50.720;7.452;2023-07-02T10:11:33;98801.25;;;19.34;100.00
30554;BME280;17335;50.720;7.452;2023-07-02T10:14:06;98794.31;;;19.38;100.00
30554;BME280;17335;50.720;7.452;2023-07-02T10:16:50;98791.69;;;19.63;100.00
30554;BME280;17335;50.720;7.452;2023-07-02T10:19:20;98790.50;;;19.91;100.00
30554;BME280;17335;50.720;7.452;2023-07-02T10:22:04;98799.91;;;20.27;100.00
30554;BME280;17335;50.720;7.452;2023-07-02T10:24:36;98801.69;;;20.15;100.00
30554;BME280;17335;50.720;7.452;2023-07-02T10:27:06;98797.22;;;19.89;100.00
30554;BME280;17335;50.720;7.452;2023-07-02T10:29:38;98797.22;;;19.89;100.00
30554;BME280;17335;50.720;7.452;2023-07-02T10:32:37;98793.59;;;19.56;100.00
30554;BME280;17335;50.720;7.452;2023-07-02T10:35:14;98794.13;;;19.72;100.00
30554;BME280;17335;50.720;7.452;2023-07-02T10:37:45;98799.38;;;19.73;100.00
30554;BME280;17335;50.720;7.452;2023-07-02T10:40:16;98802.66;;;19.89;100.00
30554;BME280;17335;50.720;7.452;2023-07-02T10:42:48;98801.03;;;20.13;100.00
30554;BME280;17335;50.720;7.452;2023-07-02T10:45:18;98802.50;;;20.15;100.00
30554;BME280;17335;50.720;7.452;2023-07-02T10:47:49;98789.53;;;20.61;100.00
30554;BME280;17335;50.720;7.452;2023-07-02T10:50:21;98798.00;;;21.03;100.00
30554;BME280;17335;50.720;7.452;2023-07-02T10:52:53;98794.50;;;21.14;100.00
30554;BME280;17335;50.720;7.452;2023-07-02T10:55:25;98798.06;;;20.96;100.00
30554;BME280;17335;50.720;7.452;2023-07-02T10:58:05;98796.03;;;21.10;100.00
30554;BME280;17335;50.720;7.452;2023-07-02T11:00:53;98787.81;;;20.92;100.00
30554;BME280;17335;50.720;7.452;2023-07-02T11:03:25;98779.94;;;20.58;100.00
30554;BME280;17335;50.720;7.452;2023-07-02T11:05:54;98800.13;;;20.51;100.00
30554;BME280;17335;50.720;7.452;2023-07-02T11:08:35;98797.41;;;20.26;100.00
30554;BME280;17335;50.720;7.452;2023-07-02T11:11:06;98793.09;;;20.11;100.00
30554;BME280;17335;50.720;7.452;2023-07-02T11:13:47;98798.81;;;20.03;100.00
30554;BME280;17335;50.720;7.452;2023-07-02T11:16:26;98802.50;;;20.15;100.00
30554;BME280;17335;50.720;7.452;2023-07-02T11:19:09;98805.66;;;20.44;100.00
30554;BME280;17335;50.720;7.452;2023-07-02T11:21:38;98801.38;;;20.55;100.00
30554;BME280;17335;50.720;7.452;2023-07-02T11:24:09;98796.91;;;20.60;100.00
30554;BME280;17335;50.720;7.452;2023-07-02T11:26:40;98810.53;;;20.60;100.00
30554;BME280;17335;50.720;7.452;2023-07-02T11:29:17;98803.44;;;20.59;100.00
30554;BME280;17335;50.720;7.452;2023-07-02T11:31:50;98814.88;;;20.43;100.00
30554;BME280;17335;50.720;7.452;2023-07-02T11:34:23;98811.28;;;20.17;100.00
30554;BME280;17335;50.720;7.452;2023-07-02T11:36:53;98806.25;;;19.89;100.00
30554;BME280;17335;50.720;7.452;2023-07-02T11:39:24;98808.28;;;19.94;100.00
30554;BME280;17335;50.720;7.452;2023-07-02T11:41:57;98806.88;;;20.48;100.00
30554;BME280;17335;50.720;7.452;2023-07-02T11:44:29;98800.03;;;21.26;100.00
30554;BME280;17335;50.720;7.452;2023-07-02T11:46:59;98786.94;;;21.84;100.00
30554;BME280;17335;50.720;7.452;2023-07-02T11:49:34;98770.63;;;22.07;100.00
30554;BME280;17335;50.720;7.452;2023-07-02T11:52:04;98779.31;;;22.04;100.00
30554;BME280;17335;50.720;7.452;2023-07-02T11:54:35;98775.13;;;22.02;100.00
30554;BME280;17335;50.720;7.452;2023-07-02T11:57:06;98781.56;;;22.07;100.00
30554;BME280;17335;50.720;7.452;2023-07-02T11:59:38;98784.63;;;21.99;100.00
30554;BME280;17335;50.720;7.452;2023-07-02T12:02:08;98791.59;;;21.95;100.00
30554;BME280;17335;50.720;7.452;2023-07-02T12:04:42;98779.38;;;21.98;100.00
30554;BME280;17335;50.720;7.452;2023-07-02T12:07:20;98771.84;;;22.23;100.00
30554;BME280;17335;50.720;7.452;2023-07-02T12:09:55;98789.41;;;22.70;100.00
30554;BME280;17335;50.720;7.452;2023-07-02T12:12:42;98784.06;;;22.63;100.00
30554;BME280;17335;50.720;7.452;2023-07-02T12:15:47;98778.25;;;22.71;90.31
30554;BME280;17335;50.720;7.452;2023-07-02T12:18:51;98779.78;;;23.14;93.84
30554;BME280;17335;50.720;7.452;2023-07-02T12:21:50;98767.00;;;23.32;88.02
30554;BME280;17335;50.720;7.452;2023-07-02T12:24:42;98787.00;;;23.20;96.90
30554;BME280;17335;50.720;7.452;2023-07-02T12:27:11;98784.53;;;22.83;85.09
30554;BME280;17335;50.720;7.452;2023-07-02T12:29:48;98785.94;;;22.86;82.57
30554;BME280;17335;50.720;7.452;2023-07-02T12:32:25;98775.00;;;22.98;79.44
30554;BME280;17335;50.720;7.452;2023-07-02T12:34:56;98784.13;;;23.39;86.76
30554;BME280;17335;50.720;7.452;2023-07-02T12:37:27;98779.63;;;23.62;79.37
30554;BME280;17335;50.720;7.452;2023-07-02T12:39:56;98780.59;;;23.15;82.28
30554;BME280;17335;50.720;7.452;2023-07-02T12:42:25;98785.94;;;23.21;73.76
30554;BME280;17335;50.720;7.452;2023-07-02T12:44:58;98779.63;;;23.62;79.73
30554;BME280;17335;50.720;7.452;2023-07-02T12:47:27;98785.91;;;23.74;76.53
30554;BME280;17335;50.720;7.452;2023-07-02T12:49:57;98788.66;;;23.74;71.50
30554;BME280;17335;50.720;7.452;2023-07-02T12:52:38;98790.25;;;23.17;65.03
30554;BME280;17335;50.720;7.452;2023-07-02T12:55:32;98802.59;;;22.84;74.50
30554;BME280;17335;50.720;7.452;2023-07-02T12:58:01;98803.56;;;22.78;83.61
30554;BME280;17335;50.720;7.452;2023-07-02T13:00:30;98809.88;;;22.67;90.36
30554;BME280;17335;50.720;7.452;2023-07-02T13:02:59;98815.16;;;22.38;92.60
30554;BME280;17335;50.720;7.452;2023-07-02T13:05:41;98821.31;;;21.91;81.83
30554;BME280;17335;50.720;7.452;2023-07-02T13:08:21;98815.06;;;22.03;90.46
30554;BME280;17335;50.720;7.452;2023-07-02T13:10:56;98822.22;;;22.16;96.26
30554;BME280;17335;50.720;7.452;2023-07-02T13:13:27;98810.81;;;22.84;100.00
30554;BME280;17335;50.720;7.452;2023-07-02T13:15:58;98817.84;;;22.80;89.91
30554;BME280;17335;50.720;7.452;2023-07-02T13:18:29;98809.38;;;22.58;90.26
30554;BME280;17335;50.720;7.452;2023-07-02T13:20:58;98810.56;;;22.74;90.49
30554;BME280;17335;50.720;7.452;2023-07-02T13:23:29;98813.44;;;22.91;90.32